createdAt,value
2019-03-28T00:00:17.680Z,993.47
2019-03-28T00:01:17.686Z,993.45
2019-03-28T00:02:17.660Z,993.41
2019-03-28T00:03:17.644Z,993.44
2019-03-28T00:04:17.639Z,993.41
2019-03-28T00:05:17.625Z,993.38
2019-03-28T00:06:17.617Z,993.36
2019-03-28T00:07:17.619Z,993.36
2019-03-28T00:08:17.880Z,993.39
2019-03-28T00:09:17.584Z,993.44
2019-03-28T00:10:17.574Z,993.38
2019-03-28T00:11:17.567Z,993.43
2019-03-28T00:12:17.956Z,993.43
2019-03-28T00:13:17.597Z,993.42
2019-03-28T00:14:24.578Z,993.49
2019-03-28T00:15:17.524Z,993.47
2019-03-28T00:16:17.518Z,993.43
2019-03-28T00:17:17.507Z,993.42
2019-03-28T00:18:17.496Z,993.56
2019-03-28T00:19:17.893Z,993.49
2019-03-28T00:20:17.470Z,993.46
2019-03-28T00:21:17.462Z,993.53
2019-03-28T00:22:17.478Z,993.48
2019-03-28T00:23:17.439Z,993.43
2019-03-28T00:24:17.437Z,993.43
2019-03-28T00:25:17.434Z,993.52
2019-03-28T00:26:29.511Z,993.43
2019-03-28T00:27:18.410Z,993.44
2019-03-28T00:28:17.388Z,993.49
2019-03-28T00:29:17.379Z,993.42
2019-03-28T00:30:17.369Z,993.47
2019-03-28T00:31:17.378Z,993.48
2019-03-28T00:32:17.343Z,993.43
2019-03-28T00:33:17.448Z,993.39
2019-03-28T00:34:17.330Z,993.43
2019-03-28T00:35:17.314Z,993.51
2019-03-28T00:36:17.316Z,993.51
2019-03-28T00:37:17.308Z,993.46
2019-03-28T00:38:17.282Z,993.44
2019-03-28T00:39:17.308Z,993.51
2019-03-28T00:40:17.262Z,993.49
2019-03-28T00:41:17.244Z,993.41
2019-03-28T00:42:17.240Z,993.43
2019-03-28T00:43:17.238Z,993.42
2019-03-28T00:44:17.214Z,993.45
2019-03-28T00:45:17.210Z,993.42
2019-03-28T00:46:17.210Z,993.39
2019-03-28T00:47:17.190Z,993.35
2019-03-28T00:48:17.190Z,993.34
2019-03-28T00:49:17.177Z,993.36
2019-03-28T00:50:17.155Z,993.30
2019-03-28T00:51:17.142Z,993.35
2019-03-28T00:52:17.139Z,993.34
2019-03-28T00:53:17.127Z,993.32
2019-03-28T00:54:17.117Z,993.34
2019-03-28T00:55:17.139Z,993.32
2019-03-28T00:56:17.091Z,993.32
2019-03-28T00:57:17.085Z,993.42
2019-03-28T00:58:17.066Z,993.33
2019-03-28T00:59:17.104Z,993.32
2019-03-28T01:00:17.049Z,993.33
2019-03-28T01:01:17.091Z,993.29
2019-03-28T01:02:17.034Z,993.36
2019-03-28T01:03:17.017Z,993.30
2019-03-28T01:04:17.007Z,993.28
2019-03-28T01:05:17.223Z,993.29
2019-03-28T01:06:16.985Z,993.22
2019-03-28T01:07:17.007Z,993.23
2019-03-28T01:08:16.975Z,993.23
2019-03-28T01:09:16.957Z,993.25
2019-03-28T01:10:16.943Z,993.26
2019-03-28T01:11:16.934Z,993.26
2019-03-28T01:12:16.924Z,993.25
2019-03-28T01:13:16.953Z,993.28
2019-03-28T01:14:16.909Z,993.26
2019-03-28T01:15:16.892Z,993.26
2019-03-28T01:16:16.882Z,993.25
2019-03-28T01:17:16.876Z,993.21
2019-03-28T01:18:16.863Z,993.23
2019-03-28T01:19:16.866Z,993.17
2019-03-28T01:20:16.842Z,993.27
2019-03-28T01:21:16.832Z,993.19
2019-03-28T01:22:16.845Z,993.20
2019-03-28T01:23:16.808Z,993.23
2019-03-28T01:24:16.798Z,993.17
2019-03-28T01:25:16.803Z,993.19
2019-03-28T01:26:16.787Z,993.19
2019-03-28T01:27:16.770Z,993.13
2019-03-28T01:28:16.769Z,993.16
2019-03-28T01:29:16.747Z,993.16
2019-03-28T01:30:16.737Z,993.14
2019-03-28T01:31:16.767Z,993.16
2019-03-28T01:32:16.731Z,993.09
2019-03-28T01:33:16.710Z,993.15
2019-03-28T01:34:16.693Z,993.12
2019-03-28T01:35:16.686Z,993.13
2019-03-28T01:36:16.670Z,993.11
2019-03-28T01:37:16.709Z,993.13
2019-03-28T01:38:16.651Z,993.03
2019-03-28T01:39:16.644Z,993.06
2019-03-28T01:40:16.641Z,993.13
2019-03-28T01:41:16.642Z,993.06
2019-03-28T01:42:16.622Z,993.10
2019-03-28T01:43:16.647Z,993.06
2019-03-28T01:44:17.296Z,993.08
2019-03-28T01:45:16.577Z,993.04
2019-03-28T01:46:16.567Z,993.06
2019-03-28T01:47:16.571Z,993.03
2019-03-28T01:48:16.545Z,993.05
2019-03-28T01:49:16.577Z,993.05
2019-03-28T01:50:16.529Z,993.07
2019-03-28T01:51:16.513Z,993.11
2019-03-28T01:52:16.507Z,993.11
2019-03-28T01:53:16.494Z,993.06
2019-03-28T01:54:16.484Z,993.11
2019-03-28T01:55:16.525Z,993.09
2019-03-28T01:56:16.471Z,993.07
2019-03-28T01:57:16.453Z,993.14
2019-03-28T01:58:16.442Z,993.09
2019-03-28T01:59:16.439Z,993.11
2019-03-28T02:00:16.442Z,993.16
2019-03-28T02:01:16.458Z,993.11
2019-03-28T02:02:16.400Z,993.08
2019-03-28T02:03:16.410Z,993.08
2019-03-28T02:04:16.387Z,993.10
2019-03-28T02:05:16.369Z,993.08
2019-03-28T02:06:16.356Z,993.15
2019-03-28T02:07:16.365Z,993.18
2019-03-28T02:08:16.339Z,993.15
2019-03-28T02:09:16.340Z,993.14
2019-03-28T02:10:16.317Z,993.16
2019-03-28T02:11:16.304Z,993.10
2019-03-28T02:12:16.295Z,993.09
2019-03-28T02:13:16.305Z,993.10
2019-03-28T02:14:16.272Z,993.09
2019-03-28T02:15:16.263Z,993.13
2019-03-28T02:16:16.263Z,993.11
2019-03-28T02:17:16.263Z,993.13
2019-03-28T02:18:16.237Z,993.08
2019-03-28T02:19:16.272Z,993.05
2019-03-28T02:20:16.229Z,993.08
2019-03-28T02:21:16.201Z,993.07
2019-03-28T02:22:16.200Z,993.07
2019-03-28T02:23:16.196Z,993.02
2019-03-28T02:24:16.175Z,993.07
2019-03-28T02:25:16.758Z,993.09
2019-03-28T02:26:16.149Z,993.07
2019-03-28T02:27:23.914Z,993.03
2019-03-28T02:28:17.129Z,993.06
2019-03-28T02:29:16.123Z,993.02
2019-03-28T02:30:16.109Z,992.99
2019-03-28T02:31:16.795Z,993.01
2019-03-28T02:32:16.121Z,992.90
2019-03-28T02:33:16.076Z,993.00
2019-03-28T02:34:16.073Z,993.04
2019-03-28T02:35:16.048Z,993.00
2019-03-28T02:36:16.050Z,992.99
2019-03-28T02:37:16.064Z,992.97
2019-03-28T02:38:16.022Z,993.06
2019-03-28T02:39:16.017Z,992.97
2019-03-28T02:40:16.803Z,993.02
2019-03-28T02:41:15.991Z,993.04
2019-03-28T02:42:15.980Z,992.99
2019-03-28T02:43:16.014Z,992.92
2019-03-28T02:44:15.962Z,992.96
2019-03-28T02:45:15.952Z,992.93
2019-03-28T02:46:15.942Z,992.98
2019-03-28T02:47:15.932Z,992.92
2019-03-28T02:48:15.921Z,992.98
2019-03-28T02:49:15.946Z,992.97
2019-03-28T02:50:15.901Z,992.93
2019-03-28T02:51:15.890Z,992.97
2019-03-28T02:52:15.878Z,992.92
2019-03-28T02:53:15.867Z,992.94
2019-03-28T02:54:15.860Z,992.98
2019-03-28T02:55:15.869Z,992.91
2019-03-28T02:56:16.203Z,992.87
2019-03-28T02:57:15.831Z,992.90
2019-03-28T02:58:15.822Z,992.89
2019-03-28T02:59:15.811Z,992.83
2019-03-28T03:00:15.800Z,992.92
2019-03-28T03:01:15.805Z,992.92
2019-03-28T03:02:15.775Z,993.01
2019-03-28T03:03:15.767Z,992.95
2019-03-28T03:04:15.773Z,992.91
2019-03-28T03:05:15.748Z,992.86
2019-03-28T03:06:15.743Z,992.91
2019-03-28T03:07:15.833Z,992.88
2019-03-28T03:08:15.722Z,992.87
2019-03-28T03:09:15.705Z,992.91
2019-03-28T03:10:15.700Z,992.87
2019-03-28T03:11:15.683Z,992.90
2019-03-28T03:12:15.674Z,992.93
2019-03-28T03:13:15.690Z,992.84
2019-03-28T03:14:15.651Z,992.89
2019-03-28T03:15:15.647Z,992.93
2019-03-28T03:16:15.634Z,992.86
2019-03-28T03:17:15.878Z,992.87
2019-03-28T03:18:15.628Z,992.85
2019-03-28T03:19:15.628Z,992.83
2019-03-28T03:20:15.754Z,992.82
2019-03-28T03:21:15.582Z,992.86
2019-03-28T03:22:15.581Z,992.85
2019-03-28T03:23:15.564Z,992.78
2019-03-28T03:24:15.549Z,992.80
2019-03-28T03:25:15.560Z,992.82
2019-03-28T03:26:15.549Z,992.76
2019-03-28T03:27:15.519Z,992.84
2019-03-28T03:28:15.511Z,992.74
2019-03-28T03:29:15.520Z,992.73
2019-03-28T03:30:15.488Z,992.77
2019-03-28T03:31:20.631Z,992.86
2019-03-28T03:32:16.477Z,992.79
2019-03-28T03:33:15.460Z,992.82
2019-03-28T03:34:15.447Z,992.91
2019-03-28T03:35:15.491Z,992.85
2019-03-28T03:36:15.428Z,992.82
2019-03-28T03:37:15.440Z,992.87
2019-03-28T03:38:15.414Z,992.97
2019-03-28T03:39:15.402Z,992.90
2019-03-28T03:40:15.381Z,992.97
2019-03-28T03:41:15.371Z,993.02
2019-03-28T03:42:15.367Z,992.99
2019-03-28T03:43:15.367Z,993.02
2019-03-28T03:44:16.116Z,992.97
2019-03-28T03:45:15.348Z,992.99
2019-03-28T03:46:15.332Z,992.99
2019-03-28T03:47:15.312Z,992.98
2019-03-28T03:48:15.297Z,992.98
2019-03-28T03:49:15.303Z,993.00
2019-03-28T03:50:15.282Z,992.94
2019-03-28T03:51:15.271Z,992.93
2019-03-28T03:52:15.709Z,992.91
2019-03-28T03:53:15.246Z,992.93
2019-03-28T03:54:15.253Z,992.91
2019-03-28T03:55:15.240Z,992.95
2019-03-28T03:56:15.235Z,992.97
2019-03-28T03:57:15.210Z,992.95
2019-03-28T03:58:17.074Z,992.85
2019-03-28T03:59:15.186Z,992.93
2019-03-28T04:00:15.181Z,992.91
2019-03-28T04:01:15.195Z,992.92
2019-03-28T04:02:15.158Z,992.84
2019-03-28T04:03:15.156Z,992.95
2019-03-28T04:04:15.141Z,992.88
2019-03-28T04:05:15.126Z,992.89
2019-03-28T04:06:15.115Z,992.85
2019-03-28T04:07:15.121Z,992.87
2019-03-28T04:08:15.101Z,992.97
2019-03-28T04:09:15.081Z,992.89
2019-03-28T04:10:15.087Z,992.95
2019-03-28T04:11:15.094Z,992.94
2019-03-28T04:12:15.058Z,992.95
2019-03-28T04:13:15.054Z,992.95
2019-03-28T04:14:15.035Z,992.90
2019-03-28T04:15:15.019Z,992.99
2019-03-28T04:16:15.013Z,992.93
2019-03-28T04:17:15.035Z,993.00
2019-03-28T04:18:14.991Z,993.01
2019-03-28T04:19:14.993Z,993.00
2019-03-28T04:20:14.970Z,992.91
2019-03-28T04:21:14.958Z,992.90
2019-03-28T04:22:14.947Z,993.00
2019-03-28T04:23:14.974Z,992.98
2019-03-28T04:24:14.941Z,992.92
2019-03-28T04:25:14.935Z,992.90
2019-03-28T04:26:14.909Z,992.96
2019-03-28T04:27:14.897Z,992.97
2019-03-28T04:28:24.761Z,992.94
2019-03-28T04:29:15.876Z,992.93
2019-03-28T04:30:14.878Z,992.96
2019-03-28T04:31:14.887Z,992.92
2019-03-28T04:32:14.849Z,992.89
2019-03-28T04:33:14.832Z,992.88
2019-03-28T04:34:14.822Z,992.96
2019-03-28T04:35:14.810Z,992.96
2019-03-28T04:36:14.811Z,992.93
2019-03-28T04:37:14.805Z,992.90
2019-03-28T04:38:14.785Z,992.98
2019-03-28T04:39:14.771Z,992.96
2019-03-28T04:40:14.768Z,992.98
2019-03-28T04:41:14.752Z,992.94
2019-03-28T04:42:14.738Z,992.94
2019-03-28T04:43:14.753Z,992.97
2019-03-28T04:44:14.728Z,992.96
2019-03-28T04:45:14.725Z,992.98
2019-03-28T04:46:14.705Z,993.00
2019-03-28T04:47:14.686Z,992.92
2019-03-28T04:48:14.679Z,992.96
2019-03-28T04:49:15.836Z,992.95
2019-03-28T04:50:14.660Z,992.92
2019-03-28T04:51:14.658Z,992.89
2019-03-28T04:52:14.638Z,992.88
2019-03-28T04:53:14.626Z,992.89
2019-03-28T04:54:14.615Z,992.91
2019-03-28T04:55:14.715Z,992.93
2019-03-28T04:56:14.594Z,992.94
2019-03-28T04:57:14.583Z,992.94
2019-03-28T04:58:14.573Z,992.97
2019-03-28T04:59:15.372Z,992.92
2019-03-28T05:00:14.554Z,992.93
2019-03-28T05:01:14.576Z,992.97
2019-03-28T05:02:14.535Z,992.97
2019-03-28T05:03:14.519Z,993.01
2019-03-28T05:04:15.284Z,992.96
2019-03-28T05:05:14.509Z,993.04
2019-03-28T05:06:14.497Z,992.99
2019-03-28T05:07:14.586Z,993.02
2019-03-28T05:08:14.468Z,993.00
2019-03-28T05:09:14.455Z,993.02
2019-03-28T05:10:15.333Z,993.03
2019-03-28T05:11:14.441Z,993.03
2019-03-28T05:12:14.429Z,993.08
2019-03-28T05:13:14.455Z,993.03
2019-03-28T05:14:14.442Z,993.07
2019-03-28T05:15:14.398Z,993.11
2019-03-28T05:16:14.413Z,993.12
2019-03-28T05:17:14.463Z,993.11
2019-03-28T05:18:14.370Z,993.06
2019-03-28T05:19:14.377Z,993.15
2019-03-28T05:20:14.901Z,993.11
2019-03-28T05:21:14.349Z,993.03
2019-03-28T05:22:14.367Z,993.03
2019-03-28T05:23:14.380Z,993.09
2019-03-28T05:24:14.304Z,993.15
2019-03-28T05:25:14.307Z,993.09
2019-03-28T05:26:14.310Z,993.15
2019-03-28T05:27:16.610Z,993.12
2019-03-28T05:28:14.263Z,993.15
2019-03-28T05:29:14.258Z,993.20
2019-03-28T05:30:14.442Z,993.17
2019-03-28T05:31:14.246Z,993.21
2019-03-28T05:32:14.220Z,993.23
2019-03-28T05:33:14.209Z,993.24
2019-03-28T05:34:14.198Z,993.24
2019-03-28T05:35:14.191Z,993.25
2019-03-28T05:36:14.191Z,993.28
2019-03-28T05:37:14.278Z,993.40
2019-03-28T05:38:14.156Z,993.34
2019-03-28T05:39:14.152Z,993.42
2019-03-28T05:40:14.139Z,993.31
2019-03-28T05:41:17.198Z,993.34
2019-03-28T05:42:14.114Z,993.36
2019-03-28T05:43:14.127Z,993.43
2019-03-28T05:44:14.105Z,993.34
2019-03-28T05:45:14.108Z,993.41
2019-03-28T05:46:14.082Z,993.48
2019-03-28T05:47:14.064Z,993.50
2019-03-28T05:48:14.066Z,993.46
2019-03-28T05:49:14.182Z,993.48
2019-03-28T05:50:14.034Z,993.51
2019-03-28T05:51:14.038Z,993.51
2019-03-28T05:52:14.011Z,993.60
2019-03-28T05:53:14.002Z,993.55
2019-03-28T05:54:13.997Z,993.55
2019-03-28T05:55:14.018Z,993.55
2019-03-28T05:56:13.976Z,993.49
2019-03-28T05:57:13.963Z,993.63
2019-03-28T05:58:13.951Z,993.67
2019-03-28T05:59:13.951Z,993.67
2019-03-28T06:00:13.928Z,993.65
2019-03-28T06:01:13.949Z,993.67
2019-03-28T06:02:13.912Z,993.69
2019-03-28T06:03:13.896Z,993.62
2019-03-28T06:04:13.887Z,993.67
2019-03-28T06:05:13.890Z,993.67
2019-03-28T06:06:13.867Z,993.65
2019-03-28T06:07:13.961Z,993.70
2019-03-28T06:08:13.851Z,993.61
2019-03-28T06:09:13.845Z,993.65
2019-03-28T06:10:16.247Z,993.65
2019-03-28T06:11:13.819Z,993.65
2019-03-28T06:12:13.808Z,993.58
2019-03-28T06:13:13.816Z,993.62
